createdAt,value
2022-08-11T00:20:58.786Z,0.00
2022-08-11T00:22:04.038Z,0.00
2022-08-11T00:22:59.789Z,0.00
2022-08-11T00:23:58.759Z,0.00
2022-08-11T00:25:02.339Z,0.00
2022-08-11T00:25:58.734Z,0.00
2022-08-11T00:26:58.726Z,0.00
2022-08-11T00:27:58.718Z,0.00
2022-08-11T00:28:58.705Z,0.00
2022-08-11T00:29:58.698Z,0.00
2022-08-11T00:30:58.690Z,0.00
2022-08-11T00:31:58.679Z,0.00
2022-08-11T00:32:58.668Z,0.00
2022-08-11T00:33:58.658Z,0.00
2022-08-11T00:35:52.087Z,0.00
2022-08-11T00:35:59.654Z,0.00
2022-08-11T00:36:58.625Z,0.00
2022-08-11T00:37:58.613Z,0.00
2022-08-11T00:38:58.603Z,0.00
2022-08-11T00:39:58.661Z,0.00
2022-08-11T00:40:58.585Z,0.00
2022-08-11T00:41:58.576Z,0.00
2022-08-11T00:42:58.563Z,0.00
2022-08-11T00:43:58.555Z,0.00
2022-08-11T00:44:58.543Z,0.00
2022-08-11T00:45:58.532Z,0.00
2022-08-11T00:46:58.525Z,0.00
2022-08-11T00:48:00.288Z,0.00
2022-08-11T00:48:58.500Z,0.00
2022-08-11T00:49:58.489Z,0.00
2022-08-11T00:50:58.479Z,0.00
2022-08-11T00:52:05.825Z,0.00
2022-08-11T00:52:59.480Z,0.00
2022-08-11T00:53:58.448Z,0.00
2022-08-11T00:54:58.441Z,0.00
2022-08-11T00:55:58.426Z,0.00
2022-08-11T00:56:58.418Z,0.00
2022-08-11T00:57:58.406Z,0.00
2022-08-11T00:58:58.395Z,0.00
2022-08-11T00:59:58.384Z,0.00
2022-08-11T01:00:58.444Z,0.00
2022-08-11T01:01:58.366Z,0.00
2022-08-11T01:02:58.351Z,0.00
2022-08-11T01:03:58.343Z,0.00
2022-08-11T01:04:58.333Z,0.00
2022-08-11T01:05:58.323Z,0.00
2022-08-11T01:06:58.309Z,0.00
2022-08-11T01:08:01.868Z,0.00
2022-08-11T01:08:58.289Z,0.00
2022-08-11T01:09:58.329Z,0.00
2022-08-11T01:10:58.273Z,0.00
2022-08-11T01:11:58.258Z,0.00
2022-08-11T01:12:58.249Z,0.00
2022-08-11T01:13:58.238Z,0.00
2022-08-11T01:14:58.230Z,0.00
2022-08-11T01:15:58.227Z,0.00
2022-08-11T01:16:58.210Z,0.00
2022-08-11T01:17:58.204Z,0.00
2022-08-11T01:18:58.193Z,0.00
2022-08-11T01:20:38.592Z,0.00
2022-08-11T01:20:59.191Z,0.00
2022-08-11T01:21:58.161Z,0.00
2022-08-11T01:22:58.152Z,0.00
2022-08-11T01:23:58.160Z,0.00
2022-08-11T01:24:58.132Z,0.00
2022-08-11T01:25:58.122Z,0.00
2022-08-11T01:26:58.118Z,0.00
2022-08-11T01:27:58.103Z,0.00
2022-08-11T01:28:58.094Z,0.00
2022-08-11T01:29:58.080Z,0.00
2022-08-11T01:30:58.069Z,0.00
2022-08-11T01:31:58.061Z,0.00
2022-08-11T01:32:58.049Z,0.00
2022-08-11T01:33:58.042Z,0.00
2022-08-11T01:34:58.029Z,0.00
2022-08-11T01:35:58.019Z,0.00
2022-08-11T01:36:58.012Z,0.00
2022-08-11T01:37:58.002Z,0.00
2022-08-11T01:38:57.989Z,0.00
2022-08-11T01:39:58.032Z,0.00
2022-08-11T01:40:57.968Z,0.00
2022-08-11T01:41:57.959Z,0.00
2022-08-11T01:42:57.946Z,0.00
2022-08-11T01:43:57.936Z,0.00
2022-08-11T01:44:57.929Z,0.00
2022-08-11T01:45:57.921Z,0.00
2022-08-11T01:46:57.909Z,0.00
2022-08-11T01:47:57.898Z,0.00
2022-08-11T01:48:57.885Z,0.00
2022-08-11T01:50:09.831Z,0.00
2022-08-11T01:50:58.891Z,0.00
2022-08-11T01:51:57.861Z,0.00
2022-08-11T01:52:57.848Z,0.00
2022-08-11T01:53:57.835Z,0.00
2022-08-11T01:54:57.825Z,0.00
2022-08-11T01:55:57.818Z,0.00
2022-08-11T01:56:57.808Z,0.00
2022-08-11T01:57:57.794Z,0.00
2022-08-11T01:58:57.787Z,0.00
2022-08-11T01:59:57.775Z,0.00
2022-08-11T02:00:57.850Z,0.00
2022-08-11T02:01:57.758Z,0.00
2022-08-11T02:02:57.746Z,0.00
2022-08-11T02:03:57.737Z,0.00
2022-08-11T02:04:57.724Z,0.00
2022-08-11T02:05:57.719Z,0.00
2022-08-11T02:06:57.708Z,0.00
2022-08-11T02:07:57.694Z,0.00
2022-08-11T02:08:57.693Z,0.00
2022-08-11T02:09:57.674Z,0.00
2022-08-11T02:10:57.673Z,0.00
2022-08-11T02:11:57.655Z,0.00
2022-08-11T02:12:57.644Z,0.00
2022-08-11T02:13:57.636Z,0.00
2022-08-11T02:15:04.799Z,0.00
2022-08-11T02:15:58.636Z,0.00
2022-08-11T02:16:57.605Z,0.00
2022-08-11T02:17:57.597Z,0.00
2022-08-11T02:18:57.587Z,0.00
2022-08-11T02:19:57.577Z,0.00
2022-08-11T02:21:57.559Z,0.00
2022-08-11T02:22:57.545Z,0.00
2022-08-11T02:23:59.507Z,0.00
2022-08-11T02:24:58.548Z,0.00
2022-08-11T02:25:57.512Z,0.00
2022-08-11T02:26:57.505Z,0.00
2022-08-11T02:27:57.492Z,0.00
2022-08-11T02:28:57.484Z,0.00
2022-08-11T02:29:57.470Z,0.00
2022-08-11T02:30:57.464Z,0.00
2022-08-11T02:32:15.512Z,0.00
2022-08-11T02:32:58.464Z,0.00
2022-08-11T02:33:57.431Z,0.00
2022-08-11T02:34:59.768Z,0.00
2022-08-11T02:35:57.413Z,0.00
2022-08-11T02:36:57.409Z,0.00
2022-08-11T02:37:57.393Z,0.00
2022-08-11T02:38:57.382Z,0.00
2022-08-11T02:39:57.372Z,0.00
2022-08-11T02:40:57.363Z,0.00
2022-08-11T02:41:57.352Z,0.00
2022-08-11T02:42:57.343Z,0.00
2022-08-11T02:43:57.330Z,0.00
2022-08-11T02:44:57.323Z,0.00
2022-08-11T02:45:57.312Z,0.00
2022-08-11T02:46:57.299Z,0.00
2022-08-11T02:47:57.294Z,0.00
2022-08-11T02:48:57.280Z,0.00
2022-08-11T02:50:06.348Z,0.00
2022-08-11T02:50:58.280Z,0.00
2022-08-11T02:51:57.249Z,0.00
2022-08-11T02:52:57.240Z,0.00
2022-08-11T02:53:58.282Z,0.00
2022-08-11T02:56:57.197Z,0.00
2022-08-11T03:40:56.756Z,0.00
2022-08-11T03:42:03.673Z,0.00
2022-08-11T03:42:57.760Z,0.00
2022-08-11T03:43:58.246Z,0.00
2022-08-11T03:49:56.667Z,0.00
2022-08-11T03:50:56.662Z,0.00
2022-08-11T03:53:56.629Z,0.00
2022-08-11T03:55:56.606Z,0.00
2022-08-11T03:56:56.599Z,0.00
2022-08-11T03:57:56.588Z,0.00
2022-08-11T03:58:56.576Z,0.00
2022-08-11T03:59:56.568Z,0.00
2022-08-11T04:00:56.559Z,0.00
2022-08-11T04:01:56.606Z,0.00
2022-08-11T04:02:56.537Z,0.00
2022-08-11T04:03:56.532Z,0.00
2022-08-11T04:04:56.522Z,0.00
2022-08-11T04:05:56.511Z,0.00
2022-08-11T04:06:56.500Z,0.00
2022-08-11T04:07:56.489Z,0.00
2022-08-11T04:08:56.481Z,0.00
2022-08-11T04:09:56.472Z,0.00
2022-08-11T04:10:57.469Z,0.00
2022-08-11T04:11:56.449Z,0.00
2022-08-11T04:12:56.439Z,0.00
2022-08-11T04:13:56.434Z,0.00
2022-08-11T04:14:56.421Z,0.00
2022-08-11T04:15:56.413Z,0.00
2022-08-11T04:16:56.405Z,0.00
2022-08-11T04:17:56.389Z,0.00
2022-08-11T04:18:56.381Z,0.00
2022-08-11T04:19:56.370Z,0.00
2022-08-11T04:20:56.362Z,0.00
2022-08-11T04:21:56.353Z,0.00
2022-08-11T04:22:56.344Z,0.00
2022-08-11T04:24:33.097Z,0.00
2022-08-11T04:24:57.348Z,0.00
2022-08-11T04:25:58.522Z,0.00
2022-08-11T04:26:56.316Z,0.00
2022-08-11T04:27:56.295Z,0.00
2022-08-11T04:28:56.285Z,0.00
2022-08-11T04:30:03.879Z,0.00
2022-08-11T04:30:57.286Z,0.00
2022-08-11T04:31:56.260Z,0.00
2022-08-11T04:32:56.242Z,0.00
2022-08-11T04:33:56.608Z,0.00
2022-08-11T04:34:56.224Z,0.00
2022-08-11T04:35:56.212Z,0.00
2022-08-11T04:36:56.204Z,0.00
2022-08-11T04:37:56.194Z,0.00
2022-08-11T04:38:56.183Z,0.00
2022-08-11T04:39:56.176Z,5.62
2022-08-11T04:40:56.164Z,5.62
2022-08-11T04:41:56.153Z,5.62
2022-08-11T04:42:56.143Z,5.62
2022-08-11T04:44:02.129Z,5.62
2022-08-11T04:44:57.148Z,5.62
2022-08-11T04:45:56.115Z,5.62
2022-08-11T04:46:56.102Z,5.62
2022-08-11T04:48:03.665Z,5.62
2022-08-11T04:48:57.112Z,5.62
2022-08-11T04:49:56.076Z,5.62
2022-08-11T04:51:00.698Z,5.62
2022-08-11T04:51:57.074Z,5.62
2022-08-11T04:52:56.040Z,5.62
2022-08-11T04:53:56.030Z,5.62
2022-08-11T04:54:56.021Z,5.62
2022-08-11T04:55:56.008Z,5.62
2022-08-11T04:56:56.001Z,5.62
2022-08-11T04:57:55.990Z,5.62
2022-08-11T04:58:55.980Z,5.62
2022-08-11T04:59:55.969Z,11.25
2022-08-11T05:00:56.658Z,11.25
2022-08-11T05:01:56.012Z,11.25
2022-08-11T05:02:55.938Z,11.25
2022-08-11T05:03:55.928Z,11.25
2022-08-11T05:04:55.917Z,11.25
2022-08-11T05:05:56.961Z,11.25
2022-08-11T05:06:55.895Z,11.25
2022-08-11T05:07:55.886Z,11.25
2022-08-11T05:08:55.869Z,11.25
2022-08-11T05:09:55.866Z,11.25
2022-08-11T05:10:55.849Z,11.25
2022-08-11T05:11:57.885Z,11.25
2022-08-11T05:12:55.832Z,11.25
2022-08-11T05:13:55.828Z,11.25
2022-08-11T05:14:55.809Z,11.25
2022-08-11T05:15:55.798Z,11.25
2022-08-11T05:16:55.788Z,11.25
2022-08-11T05:17:55.781Z,11.25
2022-08-11T05:18:55.769Z,11.25
2022-08-11T05:19:55.756Z,11.25
2022-08-11T05:20:55.746Z,11.25
2022-08-11T05:21:57.259Z,16.87
2022-08-11T05:22:55.726Z,16.87
2022-08-11T05:23:55.715Z,16.87
2022-08-11T05:24:55.705Z,16.87
2022-08-11T05:26:47.372Z,16.87
2022-08-11T05:26:55.687Z,16.87
2022-08-11T05:27:55.671Z,16.87
2022-08-11T05:28:55.667Z,22.50
2022-08-11T05:29:55.653Z,22.50
2022-08-11T05:30:55.700Z,22.50
2022-08-11T05:31:55.635Z,22.50
2022-08-11T05:33:00.934Z,22.50
2022-08-11T05:33:55.615Z,28.12
2022-08-11T05:34:55.605Z,28.12
2022-08-11T05:36:00.965Z,28.12
2022-08-11T05:37:17.186Z,28.12
2022-08-11T05:37:56.589Z,28.12
2022-08-11T05:38:55.563Z,33.75
2022-08-11T05:39:55.666Z,33.75
2022-08-11T05:41:00.037Z,33.75
2022-08-11T05:41:55.535Z,39.37
2022-08-11T05:42:55.522Z,39.37
2022-08-11T05:44:19.869Z,45.00
2022-08-11T05:44:56.526Z,45.00
2022-08-11T05:46:02.985Z,50.62
2022-08-11T05:46:56.500Z,50.62
2022-08-11T05:47:55.470Z,56.25
2022-08-11T05:48:55.476Z,56.25
2022-08-11T05:49:55.455Z,61.87
2022-08-11T05:50:55.441Z,61.87
2022-08-11T05:51:57.295Z,67.50
2022-08-11T05:52:56.674Z,67.50
2022-08-11T05:53:55.411Z,73.12
2022-08-11T05:54:55.404Z,73.12
2022-08-11T05:56:02.822Z,78.75
2022-08-11T05:56:56.402Z,78.75
2022-08-11T05:57:55.370Z,84.37
2022-08-11T05:58:55.360Z,84.37
2022-08-11T05:59:55.350Z,84.37
2022-08-11T06:00:55.338Z,84.37
2022-08-11T06:01:55.362Z,84.37
2022-08-11T06:02:55.558Z,90.00
2022-08-11T06:03:58.124Z,90.00
2022-08-11T06:04:55.300Z,90.00
2022-08-11T06:05:55.293Z,90.00
2022-08-11T06:06:55.282Z,95.62
2022-08-11T06:07:55.275Z,95.62
2022-08-11T06:08:55.259Z,95.62
2022-08-11T06:09:55.253Z,95.62
2022-08-11T06:10:55.242Z,95.62
2022-08-11T06:11:55.233Z,95.62
2022-08-11T06:12:55.221Z,101.25
2022-08-11T06:13:55.213Z,101.25
2022-08-11T06:14:55.211Z,101.25
2022-08-11T06:15:55.194Z,101.25
2022-08-11T06:16:55.180Z,101.25
2022-08-11T06:17:55.172Z,106.87
2022-08-11T06:18:55.161Z,106.87
2022-08-11T06:19:55.149Z,106.87
2022-08-11T06:20:56.163Z,106.87
2022-08-11T06:21:55.136Z,106.87
2022-08-11T06:22:55.137Z,106.87
2022-08-11T06:23:55.109Z,106.87
2022-08-11T06:24:55.098Z,112.50
2022-08-11T06:25:56.394Z,112.50
2022-08-11T06:27:11.952Z,112.50
2022-08-11T06:27:55.069Z,112.50
2022-08-11T06:28:55.055Z,112.50
2022-08-11T06:29:55.804Z,112.50
2022-08-11T06:30:55.040Z,112.50
2022-08-11T06:31:55.028Z,112.50
2022-08-11T06:32:55.015Z,112.50
2022-08-11T06:33:55.010Z,112.50
2022-08-11T06:34:54.993Z,112.50
2022-08-11T06:35:54.988Z,112.50
2022-08-11T06:36:54.977Z,112.50
2022-08-11T06:37:59.118Z,112.50
2022-08-11T06:38:54.953Z,112.50
2022-08-11T06:39:55.027Z,118.12
2022-08-11T06:40:54.935Z,118.12
2022-08-11T06:41:54.927Z,118.12
2022-08-11T06:42:54.911Z,118.12
2022-08-11T06:43:56.151Z,118.12
2022-08-11T06:44:54.893Z,118.12
2022-08-11T06:45:54.884Z,118.12
2022-08-11T06:46:54.875Z,118.12
2022-08-11T06:47:54.861Z,118.12
2022-08-11T06:48:54.853Z,118.12
2022-08-11T06:49:54.845Z,123.75
2022-08-11T06:50:54.831Z,123.75
2022-08-11T06:51:54.824Z,123.75
2022-08-11T06:52:54.814Z,123.75
2022-08-11T06:54:04.066Z,123.75
2022-08-11T06:54:55.813Z,129.37
2022-08-11T06:55:58.251Z,129.37
2022-08-11T06:57:12.453Z,135.00
2022-08-11T06:57:54.765Z,140.62
2022-08-11T06:58:54.754Z,146.25
2022-08-11T06:59:54.742Z,146.25
2022-08-11T07:00:54.735Z,146.25
2022-08-11T07:01:54.835Z,146.25
2022-08-11T07:02:54.714Z,146.25
2022-08-11T07:03:54.710Z,151.87
2022-08-11T07:04:54.694Z,151.87
2022-08-11T07:05:54.684Z,151.87
2022-08-11T07:06:54.672Z,151.87
2022-08-11T07:07:54.664Z,151.87
2022-08-11T07:08:54.653Z,151.87
2022-08-11T07:09:54.643Z,151.87
2022-08-11T07:10:54.636Z,157.50
2022-08-11T07:11:54.632Z,157.50
2022-08-11T07:12:54.613Z,157.50
2022-08-11T07:13:54.607Z,157.50
2022-08-11T07:15:00.261Z,157.50
2022-08-11T07:16:11.301Z,157.50
2022-08-11T07:16:55.596Z,163.12
2022-08-11T07:17:54.564Z,163.12
2022-08-11T07:18:54.556Z,163.12
2022-08-11T07:19:56.784Z,163.12
2022-08-11T07:20:58.602Z,163.12
2022-08-11T07:22:03.012Z,168.75
2022-08-11T07:22:55.533Z,168.75
2022-08-11T07:23:54.504Z,168.75
2022-08-11T07:24:59.854Z,168.75
2022-08-11T07:25:55.505Z,168.75
2022-08-11T07:26:54.473Z,174.37
2022-08-11T07:27:54.465Z,174.37
2022-08-11T07:28:54.456Z,174.37
2022-08-11T07:29:54.444Z,174.37
2022-08-11T07:30:54.440Z,174.37
2022-08-11T07:31:54.427Z,174.37
2022-08-11T07:32:54.415Z,174.37
2022-08-11T07:34:05.869Z,180.00
2022-08-11T07:34:54.399Z,180.00
2022-08-11T07:35:54.384Z,180.00
2022-08-11T07:36:54.380Z,180.00
2022-08-11T07:38:01.647Z,180.00
2022-08-11T07:38:55.378Z,185.62
2022-08-11T07:39:54.447Z,185.62
2022-08-11T07:40:54.337Z,191.25
2022-08-11T07:41:54.328Z,191.25
2022-08-11T07:42:54.320Z,202.50
2022-08-11T07:43:54.310Z,213.75
2022-08-11T07:44:54.301Z,230.62
2022-08-11T07:45:54.293Z,236.25
2022-08-11T07:46:54.280Z,236.25
2022-08-11T07:47:54.266Z,230.62
2022-08-11T07:48:54.256Z,225.00
2022-08-11T07:49:54.252Z,219.37
2022-08-11T07:50:56.201Z,219.37
2022-08-11T07:51:54.229Z,219.37
2022-08-11T07:52:54.219Z,219.37
2022-08-11T07:53:58.362Z,225.00
2022-08-11T07:54:55.223Z,219.37
2022-08-11T07:55:54.290Z,219.37
2022-08-11T07:57:09.036Z,219.37
2022-08-11T07:58:16.455Z,219.37
2022-08-11T07:58:57.621Z,225.00
2022-08-11T08:00:03.958Z,225.00
2022-08-11T08:00:55.156Z,225.00
2022-08-11T08:01:54.183Z,225.00
2022-08-11T08:02:54.120Z,225.00
2022-08-11T08:03:54.939Z,225.00
2022-08-11T08:04:54.099Z,225.00
2022-08-11T08:05:54.088Z,230.62
2022-08-11T08:06:54.083Z,230.62
2022-08-11T08:07:54.072Z,230.62
2022-08-11T08:08:54.061Z,230.62
2022-08-11T08:09:54.048Z,230.62
2022-08-11T08:10:54.041Z,230.62
2022-08-11T08:11:54.033Z,236.25
2022-08-11T08:12:54.025Z,236.25
2022-08-11T08:13:54.014Z,236.25
2022-08-11T08:14:54.004Z,236.25
2022-08-11T08:15:53.991Z,236.25
2022-08-11T08:16:53.981Z,236.25
2022-08-11T08:18:20.449Z,236.25
2022-08-11T08:18:54.986Z,236.25
2022-08-11T08:19:53.952Z,241.87
2022-08-11T08:20:53.943Z,241.87
2022-08-11T08:21:53.939Z,241.87
2022-08-11T08:22:55.353Z,247.50
2022-08-11T08:23:56.199Z,247.50
2022-08-11T08:24:53.902Z,253.12
2022-08-11T08:25:53.898Z,258.75
2022-08-11T08:26:53.886Z,253.12
2022-08-11T08:27:53.875Z,236.25
2022-08-11T08:28:53.875Z,236.25
2022-08-11T08:29:53.856Z,241.87
2022-08-11T08:30:53.843Z,241.87
2022-08-11T08:31:53.837Z,247.50
2022-08-11T08:32:53.824Z,241.87
2022-08-11T08:33:53.815Z,230.62
2022-08-11T08:34:53.810Z,225.00
2022-08-11T08:35:54.397Z,236.25
2022-08-11T08:36:53.784Z,241.87
2022-08-11T08:37:53.777Z,241.87
2022-08-11T08:38:53.765Z,241.87
2022-08-11T08:39:53.860Z,241.87
2022-08-11T08:40:55.906Z,241.87
2022-08-11T08:41:53.739Z,241.87
2022-08-11T08:42:53.732Z,241.87
2022-08-11T08:43:53.732Z,230.62
2022-08-11T08:44:53.710Z,247.50
2022-08-11T08:45:53.706Z,241.87
2022-08-11T08:46:53.692Z,241.87
2022-08-11T08:47:53.730Z,241.87
2022-08-11T08:48:53.847Z,247.50
2022-08-11T08:49:53.665Z,253.12
2022-08-11T08:50:53.657Z,253.12
2022-08-11T08:52:00.875Z,253.12
2022-08-11T08:52:54.662Z,253.12
2022-08-11T08:53:56.356Z,253.12
2022-08-11T08:54:53.620Z,253.12
2022-08-11T08:55:53.611Z,247.50
2022-08-11T08:56:53.603Z,247.50
2022-08-11T08:57:53.592Z,241.87
2022-08-11T08:58:53.580Z,241.87
2022-08-11T08:59:53.572Z,241.87
2022-08-11T09:00:53.635Z,236.25
2022-08-11T09:01:53.551Z,236.25
2022-08-11T09:02:53.551Z,236.25
2022-08-11T09:04:07.020Z,236.25
2022-08-11T09:04:53.525Z,241.87
2022-08-11T09:05:53.513Z,241.87
2022-08-11T09:06:53.505Z,247.50
2022-08-11T09:07:53.601Z,247.50
2022-08-11T09:08:53.485Z,247.50
2022-08-11T09:09:53.475Z,247.50
2022-08-11T09:10:53.471Z,247.50
2022-08-11T09:11:53.484Z,247.50
2022-08-11T09:12:53.462Z,247.50
2022-08-11T09:14:05.639Z,253.12
2022-08-11T09:14:53.431Z,253.12
2022-08-11T09:15:56.403Z,253.12
2022-08-11T09:16:53.411Z,253.12
2022-08-11T09:17:53.403Z,253.12
2022-08-11T09:18:53.391Z,247.50
2022-08-11T09:19:56.479Z,253.12
2022-08-11T09:20:53.379Z,253.12
2022-08-11T09:21:53.368Z,253.12
2022-08-11T09:23:29.541Z,258.75
2022-08-11T09:24:15.002Z,258.75
2022-08-11T09:24:54.372Z,258.75
2022-08-11T09:25:53.332Z,264.37
2022-08-11T09:26:53.323Z,264.37
2022-08-11T09:27:53.312Z,264.37
2022-08-11T09:28:53.301Z,264.37
2022-08-11T09:29:53.295Z,270.00
2022-08-11T09:30:53.285Z,270.00
2022-08-11T09:31:53.277Z,270.00
2022-08-11T09:32:53.267Z,275.62
2022-08-11T09:33:53.256Z,275.62
2022-08-11T09:34:54.229Z,270.00
2022-08-11T09:35:53.239Z,275.62
2022-08-11T09:36:53.232Z,275.62
2022-08-11T09:37:55.350Z,275.62
2022-08-11T09:38:53.215Z,275.62
2022-08-11T09:39:53.239Z,275.62
2022-08-11T09:42:01.068Z,281.25
2022-08-11T09:42:23.616Z,275.62
2022-08-11T09:42:54.196Z,281.25
2022-08-11T09:43:53.174Z,281.25
2022-08-11T09:44:53.818Z,281.25
2022-08-11T09:45:53.147Z,281.25
2022-08-11T09:46:53.142Z,286.87
2022-08-11T09:47:53.130Z,286.87
2022-08-11T09:48:53.123Z,286.87
2022-08-11T09:49:53.122Z,286.87
2022-08-11T09:50:53.104Z,292.50
2022-08-11T09:52:02.040Z,292.50
2022-08-11T09:53:35.222Z,292.50
2022-08-11T09:54:03.631Z,292.50
2022-08-11T09:54:53.067Z,292.50
2022-08-11T09:55:53.059Z,292.50
2022-08-11T09:56:53.055Z,298.12
2022-08-11T09:57:55.151Z,298.12
2022-08-11T09:58:53.035Z,281.25
2022-08-11T09:59:53.027Z,275.62
2022-08-11T10:00:54.064Z,303.75
2022-08-11T10:01:53.009Z,303.75
2022-08-11T10:02:53.258Z,309.37
2022-08-11T10:03:52.991Z,309.37
2022-08-11T10:04:52.983Z,309.37
2022-08-11T10:05:52.974Z,309.37
2022-08-11T10:06:54.151Z,309.37
2022-08-11T10:07:52.954Z,309.37
2022-08-11T10:08:52.945Z,315.00
2022-08-11T10:09:52.936Z,315.00
2022-08-11T10:10:52.926Z,315.00
2022-08-11T10:11:58.103Z,320.62
2022-08-11T10:12:52.930Z,320.62
2022-08-11T10:14:33.202Z,326.25
2022-08-11T10:14:53.913Z,326.25
2022-08-11T10:16:02.370Z,326.25
2022-08-11T10:16:53.901Z,326.25
2022-08-11T10:17:52.864Z,326.25
2022-08-11T10:18:53.502Z,326.25
2022-08-11T10:20:04.281Z,331.87
2022-08-11T10:20:52.842Z,337.50
2022-08-11T10:21:52.835Z,337.50
2022-08-11T10:22:52.827Z,337.50
2022-08-11T10:24:01.122Z,337.50
2022-08-11T10:24:53.861Z,348.75
2022-08-11T10:25:52.799Z,354.37
2022-08-11T10:26:53.661Z,365.62
2022-08-11T10:28:30.371Z,382.50
2022-08-11T10:29:12.011Z,393.75
2022-08-11T10:29:53.781Z,388.12
2022-08-11T10:30:52.756Z,388.12
2022-08-11T10:31:57.987Z,405.00
2022-08-11T10:32:58.832Z,421.87
2022-08-11T10:33:59.219Z,433.12
2022-08-11T10:34:54.644Z,455.62
2022-08-11T10:35:52.711Z,444.37
2022-08-11T10:36:52.706Z,292.50
2022-08-11T10:38:08.719Z,241.87
2022-08-11T10:38:53.707Z,236.25
2022-08-11T10:39:52.732Z,236.25
2022-08-11T10:40:52.668Z,241.87
2022-08-11T10:42:08.719Z,247.50
2022-08-11T10:42:57.830Z,303.75
2022-08-11T10:44:01.689Z,292.50
2022-08-11T10:44:53.657Z,354.37
2022-08-11T10:45:52.630Z,320.62
2022-08-11T10:46:52.615Z,427.50
2022-08-11T10:47:52.609Z,444.37
2022-08-11T10:48:52.599Z,405.00
2022-08-11T10:49:52.587Z,438.75
2022-08-11T10:50:52.580Z,444.37
2022-08-11T10:51:53.858Z,450.00
2022-08-11T10:52:52.564Z,450.00
2022-08-11T10:53:52.552Z,348.75
2022-08-11T10:54:52.549Z,450.00
2022-08-11T10:55:52.593Z,450.00
2022-08-11T10:56:52.527Z,466.87
2022-08-11T10:58:04.920Z,466.87
2022-08-11T10:58:53.530Z,472.50
2022-08-11T10:59:52.502Z,500.62
2022-08-11T11:00:52.517Z,506.25
2022-08-11T11:01:52.482Z,495.00
2022-08-11T11:03:16.734Z,500.62
2022-08-11T11:03:53.485Z,511.87
2022-08-11T11:04:52.457Z,528.75
2022-08-11T11:06:28.902Z,517.50
2022-08-11T11:06:53.461Z,540.00
2022-08-11T11:07:52.432Z,556.87
2022-08-11T11:08:52.569Z,556.87
2022-08-11T11:09:52.415Z,568.12
2022-08-11T11:10:52.407Z,562.50
2022-08-11T11:11:52.398Z,556.87
2022-08-11T11:12:52.388Z,556.87
2022-08-11T11:13:53.274Z,573.75
2022-08-11T11:14:58.129Z,590.62
2022-08-11T11:15:53.386Z,281.25
2022-08-11T11:16:52.357Z,286.87
2022-08-11T11:17:52.344Z,275.62
2022-08-11T11:19:00.561Z,281.25
2022-08-11T11:19:53.657Z,275.62
2022-08-11T11:20:52.391Z,590.62
2022-08-11T11:21:52.313Z,596.25
2022-08-11T11:22:52.302Z,596.25
2022-08-11T11:23:52.295Z,607.50
2022-08-11T11:24:52.288Z,613.12
2022-08-11T11:25:56.785Z,596.25
2022-08-11T11:26:52.266Z,596.25
2022-08-11T11:27:52.259Z,585.00
2022-08-11T11:28:52.251Z,579.37
2022-08-11T11:29:52.243Z,596.25
2022-08-11T11:30:52.235Z,641.25
2022-08-11T11:31:52.227Z,365.62
2022-08-11T11:32:52.216Z,281.25
2022-08-11T11:34:12.384Z,270.00
2022-08-11T11:34:54.098Z,275.62
2022-08-11T11:35:52.194Z,275.62
2022-08-11T11:36:52.185Z,281.25
2022-08-11T11:38:04.595Z,275.62
2022-08-11T11:38:53.192Z,275.62
2022-08-11T11:39:52.266Z,286.87
2022-08-11T11:40:52.148Z,669.37
2022-08-11T11:41:52.146Z,691.87
2022-08-11T11:42:52.134Z,568.12
2022-08-11T11:43:52.123Z,534.37
2022-08-11T11:44:55.619Z,495.00
2022-08-11T11:45:52.110Z,534.37
2022-08-11T11:46:52.096Z,562.50
2022-08-11T11:47:52.087Z,680.62
2022-08-11T11:48:52.080Z,708.75
2022-08-11T11:49:52.070Z,736.87
2022-08-11T11:50:53.732Z,697.50
2022-08-11T11:51:52.059Z,421.87
2022-08-11T11:52:52.043Z,348.75
2022-08-11T11:53:52.033Z,315.00
2022-08-11T11:54:52.033Z,348.75
2022-08-11T11:55:52.019Z,534.37
2022-08-11T11:56:52.005Z,731.25
2022-08-11T11:57:58.948Z,753.75
2022-08-11T11:58:53.011Z,708.75
2022-08-11T11:59:51.983Z,759.37
2022-08-11T12:00:51.975Z,736.87
2022-08-11T12:01:52.694Z,770.62
2022-08-11T12:02:51.994Z,793.12
2022-08-11T12:03:51.952Z,826.87
2022-08-11T12:04:51.939Z,832.50
2022-08-11T12:05:51.932Z,781.87
2022-08-11T12:06:51.925Z,765.00
2022-08-11T12:07:56.851Z,781.87
2022-08-11T12:08:52.923Z,781.87
2022-08-11T12:09:51.898Z,798.75
2022-08-11T12:10:51.889Z,781.87
2022-08-11T12:11:51.881Z,776.25
2022-08-11T12:12:51.873Z,804.37
2022-08-11T12:13:51.869Z,787.50
2022-08-11T12:14:51.852Z,810.00
2022-08-11T12:16:31.010Z,500.62
2022-08-11T12:16:52.864Z,495.00
2022-08-11T12:17:52.886Z,466.87
2022-08-11T12:18:51.894Z,348.75
2022-08-11T12:19:51.813Z,343.12
2022-08-11T12:20:51.809Z,337.50
2022-08-11T12:21:51.798Z,365.62
2022-08-11T12:22:52.810Z,815.62
2022-08-11T12:23:51.781Z,838.12
2022-08-11T12:24:51.775Z,793.12
2022-08-11T12:26:10.079Z,787.50
2022-08-11T12:27:15.137Z,838.12
2022-08-11T12:27:52.768Z,832.50
2022-08-11T12:28:51.739Z,826.87
2022-08-11T12:29:55.488Z,838.12
2022-08-11T12:30:54.141Z,843.75
2022-08-11T12:32:25.768Z,860.62
2022-08-11T12:32:51.710Z,883.12
2022-08-11T12:33:51.702Z,916.87
2022-08-11T12:35:22.877Z,877.50
2022-08-11T12:36:00.630Z,866.25
2022-08-11T12:36:52.699Z,855.00
2022-08-11T12:37:51.668Z,905.62
2022-08-11T12:38:51.782Z,877.50
2022-08-11T12:45:12.134Z,877.50
2022-08-11T12:45:22.109Z,877.50
2022-08-11T12:47:08.087Z,821.25
2022-08-11T12:47:16.386Z,646.87
2022-08-11T12:48:57.524Z,511.87
2022-08-11T12:49:17.389Z,517.50
2022-08-11T12:50:23.079Z,427.50
2022-08-11T12:51:17.369Z,399.37
2022-08-11T12:52:16.347Z,382.50
2022-08-11T12:53:16.333Z,382.50
2022-08-11T12:54:16.324Z,804.37
2022-08-11T12:55:16.317Z,495.00
2022-08-11T12:56:16.310Z,348.75
2022-08-11T12:57:16.302Z,348.75
2022-08-11T12:58:17.321Z,365.62
2022-08-11T12:59:16.288Z,416.25
2022-08-11T13:00:16.279Z,506.25
2022-08-11T13:01:16.373Z,776.25
2022-08-11T13:18:18.758Z,866.25
2022-08-11T13:18:20.170Z,815.62
2022-08-11T13:19:49.628Z,900.00
2022-08-11T13:20:20.160Z,748.12
2022-08-11T13:22:12.243Z,855.00
2022-08-11T13:22:20.134Z,849.37
2022-08-11T13:51:36.807Z,849.37
2022-08-11T13:51:38.207Z,821.25
2022-08-11T14:15:48.128Z,1023.75
2022-08-11T14:15:49.538Z,945.00
2022-08-11T14:16:49.526Z,720.00
2022-08-11T14:57:57.297Z,905.62
2022-08-11T14:57:58.974Z,877.50
2022-08-11T15:03:18.835Z,888.75
2022-08-11T15:03:27.979Z,883.12
2022-08-11T15:04:35.326Z,348.75
2022-08-11T15:05:21.250Z,371.25
2022-08-11T15:06:20.222Z,399.37
2022-08-11T15:07:20.213Z,770.62
2022-08-11T15:08:20.205Z,405.00
2022-08-11T15:09:20.201Z,652.50
2022-08-11T15:50:27.552Z,838.12
2022-08-11T15:50:28.964Z,838.12
2022-08-11T15:52:20.904Z,888.75
2022-08-11T15:52:28.950Z,888.75
2022-08-11T15:59:41.722Z,770.62
2022-08-11T15:59:41.871Z,821.25
2022-08-11T16:00:37.510Z,748.12
2022-08-11T16:09:29.057Z,759.37
2022-08-11T16:09:47.098Z,765.00
2022-08-11T16:10:35.930Z,776.25
2022-08-11T16:13:47.491Z,748.12
2022-08-11T16:13:48.866Z,748.12
2022-08-11T16:14:48.860Z,748.12
2022-08-11T16:15:48.850Z,759.37
2022-08-11T16:16:48.846Z,765.00
2022-08-11T16:17:48.834Z,725.62
2022-08-11T16:18:51.750Z,663.75
2022-08-11T16:19:48.814Z,703.12
2022-08-11T16:20:48.808Z,669.37
2022-08-11T16:21:48.798Z,736.87
2022-08-11T16:23:02.230Z,759.37
2022-08-11T16:23:48.784Z,798.75
2022-08-11T16:27:01.508Z,781.87
2022-08-11T16:27:03.581Z,765.00
2022-08-11T16:27:11.493Z,753.75
2022-08-11T16:27:49.772Z,697.50
2022-08-11T16:28:48.894Z,736.87
2022-08-11T16:29:48.733Z,742.50
2022-08-11T16:30:48.724Z,691.87
2022-08-11T16:31:48.715Z,697.50
2022-08-11T16:32:48.712Z,708.75
2022-08-11T16:33:51.633Z,714.37
2022-08-11T16:34:48.689Z,708.75
2022-08-11T16:35:48.683Z,669.37
2022-08-11T16:36:48.673Z,585.00
2022-08-11T16:37:48.665Z,585.00
2022-08-11T16:38:48.657Z,596.25
2022-08-11T16:39:50.715Z,607.50
2022-08-11T16:40:48.638Z,556.87
2022-08-11T16:41:48.631Z,590.62
2022-08-11T16:43:08.810Z,635.62